createdAt,value
2019-02-26T00:01:30.905Z,96165.31
2019-02-26T00:04:00.812Z,96166.20
2019-02-26T00:06:30.473Z,96152.73
2019-02-26T00:09:03.182Z,96147.45
2019-02-26T00:11:35.701Z,96154.67
2019-02-26T00:14:05.251Z,96158.95
2019-02-26T00:16:37.646Z,96151.20
2019-02-26T00:19:07.439Z,96147.16
2019-02-26T00:21:37.935Z,96145.02
2019-02-26T00:24:09.903Z,96144.15
2019-02-26T00:26:40.769Z,96150.98
2019-02-26T00:29:10.753Z,96135.73
2019-02-26T00:31:40.491Z,96130.23
2019-02-26T00:34:10.832Z,96128.66
2019-02-26T00:36:41.630Z,96132.94
2019-02-26T00:39:11.468Z,96124.58
2019-02-26T00:41:41.126Z,96115.63
2019-02-26T00:44:10.800Z,96118.91
2019-02-26T00:46:40.701Z,96124.58
2019-02-26T00:49:10.386Z,96122.86
2019-02-26T00:51:44.317Z,96111.58
2019-02-26T00:54:11.353Z,96110.07
2019-02-26T00:56:41.152Z,96102.05
2019-02-26T00:59:10.890Z,96095.09
2019-02-26T01:01:44.106Z,96097.84
2019-02-26T01:04:12.052Z,96080.65
2019-02-26T01:06:41.908Z,96075.42
2019-02-26T01:09:13.872Z,96074.68
2019-02-26T01:11:45.190Z,96072.14
2019-02-26T01:14:15.784Z,96063.58
2019-02-26T01:16:48.194Z,96052.08
2019-02-26T01:19:19.734Z,96047.16
2019-02-26T01:21:49.384Z,96042.23
2019-02-26T01:24:21.323Z,96042.52
2019-02-26T01:26:51.322Z,96046.72
2019-02-26T01:29:23.044Z,96036.11
2019-02-26T01:31:52.832Z,96030.10
2019-02-26T01:34:22.850Z,96030.14
2019-02-26T01:36:52.571Z,96017.63
2019-02-26T01:39:23.373Z,96021.22
2019-02-26T01:41:56.018Z,96031.09
2019-02-26T01:44:28.059Z,96026.33
2019-02-26T01:46:57.807Z,96025.82
2019-02-26T01:49:28.523Z,96029.13
2019-02-26T01:51:58.676Z,96016.55
2019-02-26T01:54:30.538Z,96031.81
2019-02-26T01:57:00.555Z,96024.53
2019-02-26T01:59:31.730Z,96018.91
2019-02-26T02:02:02.053Z,96027.67
2019-02-26T02:04:34.199Z,96017.92
2019-02-26T02:07:06.028Z,96006.08
2019-02-26T02:09:35.901Z,96006.85
2019-02-26T02:12:07.111Z,95999.87
2019-02-26T02:14:37.011Z,95995.06
2019-02-26T02:17:08.502Z,96001.36
2019-02-26T02:19:38.693Z,95997.41
2019-02-26T02:22:10.045Z,95991.14
2019-02-26T02:24:41.838Z,95977.56
2019-02-26T02:27:15.003Z,95977.17
2019-02-26T02:29:45.734Z,95974.77
2019-02-26T02:32:14.884Z,95973.19
2019-02-26T02:34:44.664Z,95964.47
2019-02-26T02:37:17.973Z,95954.47
2019-02-26T02:39:48.340Z,95951.91
2019-02-26T02:42:19.118Z,95948.16
2019-02-26T02:44:52.547Z,95957.92
2019-02-26T02:47:21.613Z,95949.59
2019-02-26T02:49:51.493Z,95961.75
2019-02-26T02:52:21.608Z,95959.26
2019-02-26T02:54:51.887Z,95963.09
2019-02-26T02:57:24.190Z,95962.45
2019-02-26T02:59:55.016Z,95957.84
2019-02-26T03:02:26.207Z,95957.48
2019-02-26T03:04:56.219Z,95960.91
2019-02-26T03:07:27.486Z,95965.51
2019-02-26T03:09:58.016Z,95963.05
2019-02-26T03:12:28.980Z,95961.67
2019-02-26T03:15:00.017Z,95960.26
2019-02-26T03:17:30.496Z,95955.42
2019-02-26T03:20:04.161Z,95961.09
2019-02-26T03:22:33.375Z,95956.42
2019-02-26T03:25:04.359Z,95958.48
2019-02-26T03:27:36.306Z,95955.70
2019-02-26T03:30:06.582Z,95952.34
2019-02-26T03:32:41.230Z,95949.87
2019-02-26T03:35:10.263Z,95966.20
2019-02-26T03:37:39.881Z,95962.22
2019-02-26T03:40:10.331Z,95959.50
2019-02-26T03:42:41.631Z,95965.59
2019-02-26T03:45:12.853Z,95966.26
2019-02-26T03:47:42.781Z,95967.59
2019-02-26T03:50:13.919Z,95965.94
2019-02-26T03:52:44.221Z,95966.91
2019-02-26T03:55:18.276Z,95968.28
2019-02-26T03:57:48.127Z,95969.84
2019-02-26T04:00:19.901Z,95965.94
2019-02-26T04:02:51.522Z,95965.73
2019-02-26T04:05:22.122Z,95965.34
2019-02-26T04:07:55.028Z,95966.95
2019-02-26T04:10:23.565Z,95969.30
2019-02-26T04:12:55.321Z,95968.49
2019-02-26T04:15:27.242Z,95959.47
2019-02-26T04:17:56.401Z,95948.19
2019-02-26T04:20:27.842Z,95948.27
2019-02-26T04:22:57.931Z,95942.98
2019-02-26T04:25:31.404Z,95939.04
2019-02-26T04:28:11.937Z,95934.23
2019-02-26T04:30:55.610Z,95938.20
2019-02-26T04:34:01.911Z,95947.02
2019-02-26T04:36:41.648Z,95934.82
2019-02-26T04:39:36.827Z,95935.83
2019-02-26T04:42:21.535Z,95925.20
2019-02-26T04:45:04.901Z,95920.84
2019-02-26T04:47:34.018Z,95921.02
2019-02-26T04:50:06.202Z,95913.45
2019-02-26T04:52:37.772Z,95902.38
2019-02-26T04:55:07.277Z,95896.20
2019-02-26T04:57:39.391Z,95895.22
2019-02-26T05:00:10.486Z,95900.19
2019-02-26T05:02:40.834Z,95886.76
2019-02-26T05:05:11.045Z,95888.31
2019-02-26T05:07:42.195Z,95878.09
2019-02-26T05:10:12.742Z,95870.61
2019-02-26T05:12:42.649Z,95864.97
2019-02-26T05:15:16.962Z,95864.83
2019-02-26T05:17:44.090Z,95857.11
2019-02-26T05:20:16.505Z,95853.50
2019-02-26T05:22:45.705Z,95854.59
2019-02-26T05:25:19.201Z,95852.91
2019-02-26T05:27:48.773Z,95851.98
2019-02-26T05:30:20.063Z,95856.77
2019-02-26T05:32:51.940Z,95865.36
2019-02-26T05:35:23.364Z,95861.21
2019-02-26T05:37:55.491Z,95861.87
2019-02-26T05:40:24.375Z,95865.05
2019-02-26T05:42:56.026Z,95863.55
2019-02-26T05:45:27.191Z,95871.49
2019-02-26T05:47:58.906Z,95858.91
2019-02-26T05:50:30.197Z,95863.25
2019-02-26T05:53:01.711Z,95858.05
2019-02-26T05:55:31.904Z,95858.15
2019-02-26T05:58:01.981Z,95855.48
2019-02-26T06:00:33.318Z,95866.48
2019-02-26T06:03:06.170Z,95854.28
2019-02-26T06:05:35.730Z,95851.94
2019-02-26T06:08:05.847Z,95860.34
2019-02-26T06:10:36.057Z,95863.84
2019-02-26T06:13:07.654Z,95859.27
2019-02-26T06:15:37.336Z,95859.43
2019-02-26T06:18:07.119Z,95860.14
2019-02-26T06:20:37.156Z,95859.99
2019-02-26T06:23:07.293Z,95857.28
2019-02-26T06:25:37.011Z,95857.61
2019-02-26T06:28:09.869Z,95847.55
2019-02-26T06:30:38.615Z,95842.35
2019-02-26T06:33:09.807Z,95836.53
2019-02-26T06:35:41.126Z,95846.02
2019-02-26T06:38:12.336Z,95856.84
2019-02-26T06:40:46.528Z,95860.66
2019-02-26T06:43:14.092Z,95854.27
2019-02-26T06:45:45.853Z,95850.48
2019-02-26T06:48:17.633Z,95837.30
2019-02-26T06:50:48.546Z,95827.80
2019-02-26T06:53:21.474Z,95821.18
2019-02-26T06:55:50.425Z,95824.17
2019-02-26T06:58:27.462Z,95816.77
2019-02-26T07:00:58.321Z,95814.00
2019-02-26T07:03:28.294Z,95815.89
2019-02-26T07:06:01.974Z,95814.05
2019-02-26T07:08:30.961Z,95810.70
2019-02-26T07:11:03.646Z,95817.55
2019-02-26T07:13:36.179Z,95817.17
2019-02-26T07:16:05.740Z,95818.98
2019-02-26T07:18:36.008Z,95816.87
2019-02-26T07:21:06.155Z,95811.27
2019-02-26T07:23:38.211Z,95805.39
2019-02-26T07:26:08.198Z,95800.92
2019-02-26T07:28:39.709Z,95804.36
2019-02-26T07:31:12.021Z,95805.73
2019-02-26T07:33:41.373Z,95804.80
2019-02-26T07:36:11.420Z,95801.84
2019-02-26T07:38:44.053Z,95804.50
2019-02-26T07:41:12.743Z,95792.91
2019-02-26T07:43:46.340Z,95783.52
2019-02-26T07:46:14.695Z,95769.05
2019-02-26T07:48:46.170Z,95763.34
2019-02-26T07:51:17.252Z,95762.83
2019-02-26T07:53:49.302Z,95753.27
2019-02-26T07:56:20.669Z,95741.41
2019-02-26T07:58:50.729Z,95735.03
2019-02-26T08:01:20.792Z,95733.55
2019-02-26T08:03:51.430Z,95740.57
2019-02-26T08:06:22.049Z,95739.25
2019-02-26T08:08:51.897Z,95732.36
2019-02-26T08:11:21.853Z,95737.56
2019-02-26T08:13:54.237Z,95742.47
2019-02-26T08:16:25.818Z,95746.53
2019-02-26T08:18:57.127Z,95744.12
2019-02-26T08:21:29.176Z,95742.58
2019-02-26T08:23:59.323Z,95745.55
2019-02-26T08:26:29.299Z,95739.64
2019-02-26T08:29:00.230Z,95737.12
2019-02-26T08:31:31.005Z,95733.66
2019-02-26T08:34:01.203Z,95730.72
2019-02-26T08:36:31.310Z,95728.70
2019-02-26T08:39:01.440Z,95727.33
2019-02-26T08:41:33.033Z,95726.45
2019-02-26T08:44:03.279Z,95726.05
2019-02-26T08:46:33.236Z,95715.74
2019-02-26T08:49:08.247Z,95705.95
2019-02-26T08:51:35.744Z,95703.99
2019-02-26T08:54:05.850Z,95699.45
2019-02-26T08:56:38.642Z,95690.61
2019-02-26T08:59:08.366Z,95690.09
2019-02-26T09:01:38.121Z,95689.78
2019-02-26T09:04:08.220Z,95680.19
2019-02-26T09:06:38.878Z,95668.68
2019-02-26T09:09:08.857Z,95665.61
2019-02-26T09:11:39.010Z,95665.97
2019-02-26T09:14:12.133Z,95669.08
2019-02-26T09:16:41.521Z,95655.06
2019-02-26T09:19:11.475Z,95654.47
2019-02-26T09:21:42.523Z,95637.40
2019-02-26T09:24:13.018Z,95634.75
2019-02-26T09:26:42.883Z,95641.42
2019-02-26T09:29:15.525Z,95628.11
2019-02-26T09:31:45.165Z,95625.05
2019-02-26T09:34:15.342Z,95626.09
2019-02-26T09:36:45.860Z,95641.49
2019-02-26T09:39:16.640Z,95632.65
2019-02-26T09:41:46.438Z,95636.45
2019-02-26T09:44:16.934Z,95631.22
2019-02-26T09:46:47.077Z,95632.08
2019-02-26T09:49:17.081Z,95630.78
2019-02-26T09:51:46.815Z,95620.97
2019-02-26T09:54:17.770Z,95621.66
2019-02-26T09:56:48.131Z,95617.54
2019-02-26T09:59:19.409Z,95609.56
2019-02-26T10:01:49.531Z,95604.37
2019-02-26T10:04:20.137Z,95598.11
2019-02-26T10:06:51.029Z,95591.14
2019-02-26T10:09:21.188Z,95589.73
2019-02-26T10:11:51.644Z,95580.89
2019-02-26T10:14:23.126Z,95568.55
2019-02-26T10:16:55.045Z,95555.16
2019-02-26T10:19:24.548Z,95554.11
2019-02-26T10:21:54.329Z,95551.88
2019-02-26T10:24:27.185Z,95557.74
2019-02-26T10:26:58.728Z,95546.41
2019-02-26T10:29:27.136Z,95543.71
2019-02-26T10:31:57.101Z,95540.42
2019-02-26T10:34:30.255Z,95534.00
2019-02-26T10:36:58.262Z,95530.88
2019-02-26T10:39:28.425Z,95526.70
2019-02-26T10:42:01.987Z,95521.41
2019-02-26T10:44:30.526Z,95521.70
2019-02-26T10:47:03.044Z,95513.86
2019-02-26T10:49:32.258Z,95513.31
2019-02-26T10:52:02.272Z,95504.20
2019-02-26T10:54:39.376Z,95496.75
2019-02-26T10:57:07.470Z,95503.23
2019-02-26T10:59:35.760Z,95487.52
2019-02-26T11:02:05.834Z,95489.37
2019-02-26T11:04:41.070Z,95483.42
2019-02-26T11:07:09.394Z,95473.80
2019-02-26T11:09:39.424Z,95455.59
2019-02-26T11:12:09.509Z,95450.32
2019-02-26T11:14:41.787Z,95434.58
2019-02-26T11:17:11.306Z,95434.69
2019-02-26T11:19:41.929Z,95421.34
2019-02-26T11:22:12.044Z,95415.42
2019-02-26T11:24:42.107Z,95414.55
2019-02-26T11:27:12.213Z,95397.09
2019-02-26T11:29:42.342Z,95389.02
2019-02-26T11:32:15.048Z,95388.20
2019-02-26T11:34:43.893Z,95378.02
2019-02-26T11:37:13.844Z,95366.24
2019-02-26T11:39:43.820Z,95373.22
2019-02-26T11:42:15.855Z,95360.58
2019-02-26T11:44:45.529Z,95362.89
2019-02-26T11:47:16.666Z,95358.23
2019-02-26T11:49:46.978Z,95366.89
2019-02-26T11:52:19.571Z,95371.92
2019-02-26T11:54:49.694Z,95361.38
2019-02-26T11:57:21.097Z,95362.34
2019-02-26T11:59:52.539Z,95358.00
2019-02-26T12:02:29.419Z,95362.92
2019-02-26T12:04:58.013Z,95363.01
2019-02-26T12:07:32.317Z,95362.78
2019-02-26T12:12:37.505Z,95360.97
2019-02-26T12:15:12.418Z,95357.36
2019-02-26T12:17:46.017Z,95350.33
2019-02-26T12:20:19.565Z,95339.25
2019-02-26T12:22:52.366Z,95319.13
2019-02-26T12:25:24.318Z,95325.14
2019-02-26T12:27:55.704Z,95311.55
2019-02-26T12:30:27.482Z,95315.44
2019-02-26T12:32:59.025Z,95305.77
2019-02-26T12:35:33.386Z,95292.31
2019-02-26T12:38:17.299Z,95291.12
2019-02-26T12:40:41.119Z,95289.34
2019-02-26T12:43:14.706Z,95295.02
2019-02-26T12:45:44.672Z,95285.04
2019-02-26T12:48:19.606Z,95285.68
2019-02-26T12:50:51.949Z,95283.87
2019-02-26T12:53:23.620Z,95293.30
2019-02-26T12:55:56.598Z,95301.28
2019-02-26T12:58:28.339Z,95278.55
2019-02-26T13:00:59.937Z,95266.12
2019-02-26T13:03:31.317Z,95259.35
2019-02-26T13:06:05.993Z,95270.02
2019-02-26T13:08:39.663Z,95268.84
2019-02-26T13:11:11.788Z,95254.72
2019-02-26T13:13:44.770Z,95248.66
2019-02-26T13:16:16.648Z,95240.72
2019-02-26T13:18:51.225Z,95232.20
2019-02-26T13:21:21.202Z,95224.90
2019-02-26T13:23:52.540Z,95210.80
2019-02-26T13:26:24.181Z,95207.22
2019-02-26T13:29:00.479Z,95195.40
2019-02-26T13:31:33.964Z,95194.70
2019-02-26T13:34:03.382Z,95190.84
2019-02-26T13:36:36.920Z,95210.33
2019-02-26T13:39:08.851Z,95204.63
2019-02-26T13:41:42.069Z,95220.84
2019-02-26T13:44:13.504Z,95213.74
2019-02-26T13:46:45.063Z,95202.75
2019-02-26T13:49:16.426Z,95198.56
2019-02-26T13:51:47.681Z,95190.47
2019-02-26T13:54:19.067Z,95177.16
2019-02-26T13:56:50.310Z,95173.41
2019-02-26T13:59:21.644Z,95174.83
2019-02-26T14:01:53.332Z,95163.98
2019-02-26T14:04:25.032Z,95161.74
2019-02-26T14:06:56.729Z,95156.86
2019-02-26T14:09:28.752Z,95161.32
2019-02-26T14:12:00.450Z,95148.20
2019-02-26T14:14:32.224Z,95146.80
2019-02-26T14:17:03.971Z,95139.80
2019-02-26T14:19:35.428Z,95126.72
2019-02-26T14:22:07.263Z,95124.02
2019-02-26T14:24:38.996Z,95115.56
2019-02-26T14:27:10.476Z,95111.04
2019-02-26T14:29:41.981Z,95095.59
2019-02-26T14:32:13.455Z,95102.88
2019-02-26T14:34:45.207Z,95097.88
2019-02-26T14:37:16.838Z,95083.62
2019-02-26T14:39:48.518Z,95077.04
2019-02-26T14:42:21.598Z,95073.94
2019-02-26T14:44:54.212Z,95083.78
2019-02-26T14:47:25.943Z,95075.91
2019-02-26T14:49:57.543Z,95077.04
2019-02-26T14:52:29.169Z,95081.19
2019-02-26T14:55:00.646Z,95081.32
2019-02-26T14:57:33.074Z,95080.20
2019-02-26T15:00:04.932Z,95079.84
2019-02-26T15:02:37.716Z,95067.36
2019-02-26T15:05:09.309Z,95071.35
2019-02-26T15:07:40.618Z,95064.33
2019-02-26T15:10:12.387Z,95059.05
2019-02-26T15:12:44.116Z,95068.85
2019-02-26T15:15:16.123Z,95061.77
2019-02-26T15:17:47.798Z,95061.34
2019-02-26T15:20:19.283Z,95058.76
2019-02-26T15:22:50.701Z,95039.66
2019-02-26T15:25:22.892Z,95044.45
2019-02-26T15:27:54.324Z,95028.22
2019-02-26T15:30:25.789Z,95027.14
2019-02-26T15:32:57.281Z,95027.11
2019-02-26T15:35:29.014Z,95021.96
2019-02-26T15:38:00.645Z,95018.08
2019-02-26T15:40:32.294Z,95020.45
2019-02-26T15:43:03.920Z,95001.84
2019-02-26T15:45:35.688Z,95017.99
2019-02-26T15:48:07.448Z,95009.13
2019-02-26T15:50:40.236Z,95027.33
2019-02-26T15:53:12.163Z,95033.00
2019-02-26T15:55:43.782Z,95026.69
2019-02-26T15:58:15.378Z,95029.30
2019-02-26T16:00:47.053Z,95031.97
2019-02-26T16:03:18.907Z,95038.11
2019-02-26T16:05:50.346Z,95030.52
2019-02-26T16:08:21.948Z,95039.20
2019-02-26T16:10:53.571Z,95037.44
2019-02-26T16:13:25.212Z,95042.28
2019-02-26T16:15:56.915Z,95046.85
2019-02-26T16:18:29.616Z,95042.52
2019-02-26T16:21:01.951Z,95040.73
2019-02-26T16:23:33.375Z,95041.22
2019-02-26T16:26:05.698Z,95040.16
2019-02-26T16:28:37.911Z,95034.52
2019-02-26T16:31:09.534Z,95038.98
2019-02-26T16:33:41.213Z,95043.33
2019-02-26T16:36:13.104Z,95042.78
2019-02-26T16:38:44.773Z,95043.25
2019-02-26T16:41:16.568Z,95055.23
2019-02-26T16:43:51.655Z,95053.72
2019-02-26T16:46:21.270Z,95066.52
2019-02-26T16:48:53.570Z,95062.77
2019-02-26T16:51:25.503Z,95067.47
2019-02-26T16:53:57.122Z,95070.78
2019-02-26T16:56:28.810Z,95066.53
2019-02-26T16:59:00.617Z,95073.94
2019-02-26T17:01:32.315Z,95077.46
2019-02-26T17:04:05.595Z,95070.06
2019-02-26T17:06:36.959Z,95081.69
2019-02-26T17:09:09.150Z,95079.70
2019-02-26T17:11:41.681Z,95085.22
2019-02-26T17:14:14.810Z,95091.89
2019-02-26T17:16:46.589Z,95093.19
2019-02-26T17:19:18.183Z,95103.91
2019-02-26T17:21:49.533Z,95110.71
2019-02-26T17:24:21.396Z,95118.69
2019-02-26T17:26:52.772Z,95122.22
2019-02-26T17:29:24.025Z,95129.03
2019-02-26T17:31:55.717Z,95118.00
2019-02-26T17:34:27.278Z,95135.87
2019-02-26T17:36:58.955Z,95133.72
2019-02-26T17:39:30.489Z,95131.05
2019-02-26T17:42:01.780Z,95123.38
2019-02-26T17:44:33.924Z,95114.11
2019-02-26T17:47:05.657Z,95119.98
2019-02-26T17:49:37.020Z,95128.31
2019-02-26T17:52:08.464Z,95135.38
2019-02-26T17:54:40.109Z,95128.54
2019-02-26T17:57:11.701Z,95125.73
2019-02-26T17:59:43.460Z,95127.03
2019-02-26T18:02:15.101Z,95125.95
2019-02-26T18:04:46.779Z,95120.44
2019-02-26T18:07:18.309Z,95114.91
2019-02-26T18:09:50.622Z,95111.04
2019-02-26T18:12:23.278Z,95105.73
2019-02-26T18:14:56.157Z,95097.30
2019-02-26T18:17:27.936Z,95098.45
2019-02-26T18:19:59.144Z,95103.50
2019-02-26T18:22:30.450Z,95109.95
2019-02-26T18:25:01.953Z,95110.06
2019-02-26T18:27:33.569Z,95102.01
2019-02-26T18:30:05.703Z,95100.72
2019-02-26T18:32:37.328Z,95105.52
2019-02-26T18:35:08.642Z,95113.28
2019-02-26T18:37:46.430Z,95120.78
2019-02-26T18:40:14.016Z,95119.02
2019-02-26T18:42:45.588Z,95107.77
2019-02-26T18:45:19.402Z,95095.77
2019-02-26T18:47:51.172Z,95088.14
2019-02-26T18:50:22.830Z,95076.30
2019-02-26T18:52:54.051Z,95081.20
2019-02-26T18:55:28.414Z,95082.49
2019-02-26T18:57:59.215Z,95085.41
2019-02-26T19:00:30.830Z,95071.69
2019-02-26T19:03:02.628Z,95071.21
2019-02-26T19:05:34.379Z,95072.88
2019-02-26T19:08:06.534Z,95068.28
2019-02-26T19:10:39.261Z,95073.80
2019-02-26T19:13:10.643Z,95095.05
2019-02-26T19:15:42.234Z,95098.22
2019-02-26T19:18:13.766Z,95100.33
2019-02-26T19:20:48.903Z,95116.30
2019-02-26T19:23:18.579Z,95119.23
2019-02-26T19:25:50.143Z,95119.58
2019-02-26T19:28:25.626Z,95119.44
2019-02-26T19:30:54.998Z,95126.25
2019-02-26T19:33:26.385Z,95130.37
2019-02-26T19:35:58.001Z,95121.47
2019-02-26T19:38:29.680Z,95123.31
2019-02-26T19:41:03.425Z,95119.80
2019-02-26T19:43:35.049Z,95112.42
2019-02-26T19:46:06.415Z,95117.48
2019-02-26T19:48:37.869Z,95118.99
2019-02-26T19:51:09.269Z,95121.83
2019-02-26T19:53:40.661Z,95134.94
2019-02-26T19:56:11.984Z,95130.11
2019-02-26T19:58:43.290Z,95126.49
2019-02-26T20:01:14.626Z,95127.44
2019-02-26T20:03:46.005Z,95127.33
2019-02-26T20:06:18.748Z,95122.66
2019-02-26T20:08:51.393Z,95120.82
2019-02-26T20:11:23.325Z,95098.48
2019-02-26T20:14:04.316Z,95109.19
2019-02-26T20:16:28.442Z,95113.98
2019-02-26T20:18:59.823Z,95120.67
2019-02-26T20:21:31.598Z,95109.42
2019-02-26T20:24:03.002Z,95119.85
2019-02-26T20:26:34.646Z,95113.73
2019-02-26T20:29:07.791Z,95109.45
2019-02-26T20:31:39.433Z,95114.48
2019-02-26T20:34:11.025Z,95108.27
2019-02-26T20:36:42.733Z,95105.84
2019-02-26T20:39:14.249Z,95103.88
2019-02-26T20:41:46.166Z,95104.22
2019-02-26T20:44:17.357Z,95099.55
2019-02-26T20:46:48.658Z,95098.94
2019-02-26T20:49:19.897Z,95103.70
2019-02-26T20:51:51.144Z,95101.73
2019-02-26T20:54:23.833Z,95094.83
2019-02-26T20:56:55.077Z,95100.59
2019-02-26T20:59:26.275Z,95100.49
2019-02-26T21:01:57.772Z,95113.08
2019-02-26T21:04:29.525Z,95120.49
2019-02-26T21:07:00.974Z,95120.86
2019-02-26T21:09:32.849Z,95106.14
2019-02-26T21:12:04.308Z,95121.52
2019-02-26T21:14:35.894Z,95119.17
2019-02-26T21:17:09.389Z,95115.75
2019-02-26T21:19:40.781Z,95114.33
2019-02-26T21:22:12.272Z,95109.66
2019-02-26T21:24:43.691Z,95110.59
2019-02-26T21:27:14.925Z,95113.65
2019-02-26T21:29:46.583Z,95116.11
2019-02-26T21:32:18.076Z,95115.95
2019-02-26T21:34:49.742Z,95113.03
2019-02-26T21:37:21.340Z,95106.09
2019-02-26T21:39:52.783Z,95109.33
2019-02-26T21:42:24.149Z,95108.16
2019-02-26T21:44:55.698Z,95103.63
2019-02-26T21:47:27.030Z,95096.22
2019-02-26T21:49:58.305Z,95089.19
2019-02-26T21:52:29.919Z,95106.92
2019-02-26T21:55:01.826Z,95109.50
2019-02-26T21:57:33.506Z,95111.32
2019-02-26T22:00:06.054Z,95102.30
2019-02-26T22:02:39.099Z,95092.60
2019-02-26T22:05:10.768Z,95096.29
2019-02-26T22:07:42.583Z,95097.17
2019-02-26T22:10:14.898Z,95095.78
2019-02-26T22:12:46.370Z,95102.52
2019-02-26T22:15:17.921Z,95099.03
2019-02-26T22:17:49.612Z,95104.22
2019-02-26T22:20:27.504Z,95110.50
2019-02-26T22:22:54.523Z,95107.57
2019-02-26T22:25:25.911Z,95112.61
2019-02-26T22:27:57.481Z,95113.61
2019-02-26T22:30:29.176Z,95113.52
2019-02-26T22:33:00.504Z,95108.69
2019-02-26T22:35:31.791Z,95108.53
2019-02-26T22:38:03.148Z,95115.34
2019-02-26T22:40:34.392Z,95109.83
2019-02-26T22:43:06.125Z,95107.73
2019-02-26T22:45:37.385Z,95105.37
2019-02-26T22:48:08.778Z,95109.83
2019-02-26T22:50:40.729Z,95108.98
2019-02-26T22:53:12.209Z,95105.46
2019-02-26T22:55:43.674Z,95103.82
2019-02-26T22:58:15.439Z,95108.30
2019-02-26T23:01:14.436Z,95105.89
2019-02-26T23:03:47.551Z,95095.36
2019-02-26T23:06:19.134Z,95100.42
2019-02-26T23:08:50.943Z,95099.11
2019-02-26T23:11:22.607Z,95103.14
2019-02-26T23:13:54.446Z,95102.81
2019-02-26T23:16:26.979Z,95099.23
2019-02-26T23:18:58.832Z,95104.62
2019-02-26T23:21:30.919Z,95101.13
2019-02-26T23:24:02.729Z,95101.45
2019-02-26T23:26:34.356Z,95101.69
2019-02-26T23:29:06.140Z,95106.70
2019-02-26T23:31:37.830Z,95108.00
2019-02-26T23:34:09.344Z,95107.85
2019-02-26T23:36:41.129Z,95100.52
2019-02-26T23:39:15.753Z,95108.77
2019-02-26T23:41:48.622Z,95101.78
2019-02-26T23:44:19.964Z,95109.09
2019-02-26T23:46:51.377Z,95115.66
2019-02-26T23:49:22.811Z,95114.78
2019-02-26T23:51:54.629Z,95118.79
2019-02-26T23:54:26.046Z,95125.67
2019-02-26T23:56:57.395Z,95126.84
2019-02-26T23:59:28.820Z,95131.48
